Impacts METAR Board
IDs:

KDTW - Detroit Metro/Wayne, MI, US

Updated at: 0100 UTC 18 Aug 2018
Potential Impact None Slight Moderate High
Time 17/13Z 17/14Z 17/15Z 17/16Z 17/17Z 17/18Z 17/19Z 17/20Z 17/21Z 17/22Z 17/23Z 18/00Z 18/01Z
Temp74 75 76 78 79 78 75 77 80 80 78 75 75
Dewpt69 69 69 70 69 69 68 68 67 69 68 69 69
Altim29.97 29.96 29.94 29.92 29.94 29.94 29.93 29.91 29.91 29.90 29.91 29.92 29.93
VIS4 6 5 7 8 7 4 10 10 10 9 4 8
CIG5 7 9 15 25 60 40 35 220 220 220 100 100
CoverOVCOVCOVCOVCOVCOVCOVCOVCBKNBKNBKNOVCOVC
FltCatIFRIFRIFRMVFRMVFRVFRMVFRVFRVFRVFRVFRMVFRVFR
WXHZHZHZ-------RA-------RA-RA-RA
WDir2202402201601701802401800330290270340
WSpd7 6 5 6 4 8 10 4 3 4 6 6 9
WGst-- -- -- -- -- -- -- -- -- -- -- -- --
Raw hourly METARs
KDTW 171253Z 22007KT 4SM HZ OVC005 23/21 A2997 RMK AO2 SLP144 T02330206
KDTW 171353Z 24006KT 6SM HZ OVC007 24/21 A2996 RMK AO2 SLP139 T02390206
KDTW 171453Z 22005KT 5SM HZ OVC009 24/21 A2994 RMK AO2 SLP134 T02440206 58005
KDTW 171553Z 16006KT 7SM SCT010 BKN015 OVC035 26/21 A2992 RMK AO2 RAB1455E19 SLP128 P0000 T02560211
KDTW 171653Z 17004KT 8SM BKN025 OVC060 26/21 A2994 RMK AO2 SLP132 T02610206
KDTW 171753Z 18008KT 7SM SCT030 BKN060 OVC100 26/21 A2994 RMK AO2 SLP132 60000 T02560206 10261 20228 56002
KDTW 171905Z 24010KT 4SM R03R/2000VP6000FT -RA SCT020 BKN040 OVC080 24/20 A2993 RMK AO2 LTG DSNT S T02390200 PNO $
KDTW 171953Z 18004KT 10SM SCT025 BKN035 OVC060 25/20 A2991 RMK AO2 RAE50 SLP125 P0001 T02500200 $
KDTW 172053Z VRB03KT 10SM FEW025 SCT035 BKN220 27/19 A2991 RMK AO2 SLP125 60004 T02670194 58006 $
KDTW 172153Z 33004KT 10SM FEW025 SCT050 BKN220 27/21 A2990 RMK AO2 LTG DSNT SW SLP121 T02670206
KDTW 172253Z 29006KT 9SM -RA FEW025 SCT050 BKN220 26/20 A2991 RMK AO2 LTG DSNT S AND SW RAB53 SLP122 P0000 T02560200
KDTW 172353Z 27006KT 4SM -RA FEW025 SCT050 OVC100 24/21 A2992 RMK AO2 LTG DSNT S SLP128 P0002 60006 T02390206 10278 20239 53002
KDTW 180053Z 34009KT 8SM -RA FEW025 SCT040 OVC100 24/21 A2993 RMK AO2 SLP132 P0000 T02390206



Page loaded:  01:28 UTC  |   06:28 PM Pacific  |   07:28 PM Mountain  |   08:28 PM Central  |   09:28 PM Eastern

 

ADVISORIES

FORECASTS

FORECASTS

OBSERVATIONS

USER TOOLS

ABOUT US